Stary Oskol, Russia
Current Conditions -  °F | °C
As of 12:30 PM on Friday 19 Dec 2014 (Local Time) from UUOO Reporting Station
Broken Clouds Broken Clouds  
Wind Chill: 25°   Ceiling: 5000
Heat Index: 30°   Visibility: 6mi
Dew Point: 28°   Wind: 4mph
Humidity: 93%   Direction: 190°S
Pressure: 29.88"   Gusts: NA
Location:  51.3°N, 37.88°E
Report Text: UUOO 190930Z 19002MPS 140V230 9000 BKN050 M01/M02 Q1012 NOSIG RMK 30390240
Loading
Personal Weather Stations






























Interactive Weather Map New forecast layout! Learn more

10-Day Weather Forecast

Advertisements
Track Severe Weather on mobile